Flight Track Log - Related Links

Times and Time Zones

All times are in EDT time to prevent confusion due to time zone crossing. See the N790CA flight status page for this flight to view local times or setup timezone preferences in your user account.

Time Position Orientation Groundspeed Altitude Reporting Facility
EDT Latitude Longitude Course Direction KTS MPH feet Rate Location/Type
Thu 08:59:39 AM 27.3833 -82.5500 138° Southeast 128 147 600  Level Tampa TRACON
Thu 08:59:57 AM 27.3667 -82.5333 138° Southeast 140 161 1,100 1,000 Climbing Tampa TRACON
Thu 09:00:57 AM 27.3333 -82.5333 180° South 158 182 1,900 1,100 Climbing Tampa TRACON
Thu 09:01:57 AM 27.3167 -82.5833 249° West 167 192 3,300 1,650 Climbing Tampa TRACON
Thu 09:02:57 AM 27.3167 -82.6167 270° West 137 158 5,200 1,625 Climbing Tampa TRACON
Thu 09:04:21 AM 27.3317 -82.6725 287° West 46 53 7,200 1,458 Climbing Miami Center
Thu 09:05:21 AM 27.3639 -82.7044 319° Northwest 105 121 8,700 1,450 Climbing Miami Center
Thu 09:06:21 AM 27.3958 -82.7367 318° Northwest 136 157 10,100 1,400 Climbing Miami Center
Thu 09:07:21 AM 27.4328 -82.7572 334° Northwest 146 168 11,500 1,350 Climbing Miami Center
Thu 09:08:21 AM 27.4783 -82.7594 358° North 146 168 12,800 1,250 Climbing Miami Center
Thu 09:09:21 AM 27.5264 -82.7619 357° North 162 186 14,000 1,300 Climbing Miami Center
Thu 09:10:21 AM 27.5764 -82.7644 357° North 172 198 15,400 1,350 Climbing Miami Center
Thu 09:11:21 AM 27.6264 -82.7647 360° North 177 204 16,700 1,330 Climbing Miami Center
Thu 09:13:44 AM 27.7575 -82.7683 359° North 189 217 19,900 1,330 Climbing Jacksonville Center
Thu 09:14:44 AM 27.8139 -82.7683 360° North 200 230 21,200 1,300 Climbing Jacksonville Center
Thu 09:15:44 AM 27.8725 -82.7728 356° North 200 230 22,500 1,250 Climbing Jacksonville Center
Thu 09:16:44 AM 27.9308 -82.7750 358° North 200 230 23,700 750 Climbing Jacksonville Center
Thu 09:17:44 AM 27.9975 -82.7728 North 211 243 24,000 150 Climbing Jacksonville Center
Thu 09:18:44 AM 28.0706 -82.7608 North 237 273 24,000  Level Jacksonville Center
Thu 09:19:44 AM 28.1519 -82.7583 North 267 307 24,000  Level Jacksonville Center
Thu 09:20:44 AM 28.2375 -82.7511 North 288 331 24,000  Level Jacksonville Center
Thu 09:21:44 AM 28.3189 -82.7442 North 294 338 24,000  Level Jacksonville Center
Thu 09:22:44 AM 28.4022 -82.7344 North 294 338 24,000 650 Level Jacksonville Center
Thu 09:23:44 AM 28.4817 -82.7272 North 294 338 25,300 1,400 Climbing Jacksonville Center
Thu 09:24:44 AM 28.5483 -82.7247 North 263 303 26,800 1,000 Climbing Jacksonville Center
Thu 09:25:44 AM 28.6047 -82.7200 North 244 281 27,300 650 Climbing Jacksonville Center
Thu 09:26:44 AM 28.6694 -82.7128 North 229 264 28,100 800 Climbing Jacksonville Center
Thu 09:27:44 AM 28.7403 -82.7056 North 224 258 28,900 800 Climbing Jacksonville Center
Thu 09:28:44 AM 28.8072 -82.7006 North 230 265 29,700 550 Climbing Jacksonville Center
Thu 09:29:44 AM 28.8761 -82.6933 North 235 270 30,000 150 Climbing Jacksonville Center
Thu 09:30:44 AM 28.9511 -82.6861 North 245 282 30,000  Level Jacksonville Center
Thu 09:31:44 AM 29.0283 -82.6789 North 258 297 30,000  Level Jacksonville Center
Thu 09:32:44 AM 29.1097 -82.6714 North 276 318 30,000  Level Jacksonville Center
Thu 09:33:44 AM 29.1911 -82.6642 North 286 329 30,000  Level Jacksonville Center
Thu 09:34:44 AM 29.2747 -82.6569 North 291 335 30,000  Level Jacksonville Center
Thu 09:35:44 AM 29.3581 -82.6494 North 291 335 30,000  Level Jacksonville Center
Thu 09:36:44 AM 29.4417 -82.6422 North 291 335 30,000 50 Level Jacksonville Center
Thu 09:37:44 AM 29.5250 -82.6347 North 291 335 30,100 500 Climbing Jacksonville Center
Thu 09:38:44 AM 29.6003 -82.6297 North 291 335 31,000 450 Climbing Jacksonville Center
Thu 09:39:44 AM 29.6775 -82.6225 North 285 328 31,000  Level Jacksonville Center
Thu 09:40:44 AM 29.7567 -82.6150 North 285 328 31,000  Level Jacksonville Center
Thu 09:41:44 AM 29.8383 -82.6078 North 285 328 31,000  Level Jacksonville Center
Thu 09:42:44 AM 29.9175 -82.6025 North 285 328 31,000  Level Jacksonville Center
Thu 09:43:44 AM 29.9989 -82.5953 North 285 328 31,000  Level Jacksonville Center
Thu 09:44:44 AM 30.0803 -82.5900 North 291 335 31,000  Level Jacksonville Center
Thu 09:45:44 AM 30.1617 -82.5828 North 291 335 31,000  Level Jacksonville Center
Thu 09:46:44 AM 30.2431 -82.5753 North 291 335 31,000  Level Jacksonville Center
Thu 09:47:44 AM 30.3244 -82.5700 North 291 335 31,000  Level Jacksonville Center
Thu 09:48:44 AM 30.4081 -82.5625 North 291 335 31,000  Level Jacksonville Center
Thu 09:49:44 AM 30.4917 -82.5550 North 291 335 31,000  Level Jacksonville Center
Thu 09:50:44 AM 30.5542 -82.4994 37° Northeast 280 322 31,000  Level Jacksonville Center
Thu 09:51:44 AM 30.6103 -82.4317 46° Northeast 275 316 31,000  Level Jacksonville Center
Thu 09:52:44 AM 30.6683 -82.3636 45° Northeast 280 322 31,000  Level Jacksonville Center
Thu 09:53:44 AM 30.7244 -82.2958 46° Northeast 285 328 31,000  Level Jacksonville Center
Thu 09:54:44 AM 30.7825 -82.2300 44° Northeast 285 328 31,000  Level Jacksonville Center
Thu 09:55:44 AM 30.8406 -82.1619 45° Northeast 285 328 31,000  Level Jacksonville Center
Thu 09:56:44 AM 30.8989 -82.0961 44° Northeast 285 328 31,000  Level Jacksonville Center
Thu 09:57:44 AM 30.9589 -82.0253 45° Northeast 285 328 31,000  Level Jacksonville Center
Thu 09:58:44 AM 31.0169 -81.9594 44° Northeast 285 328 31,000  Level Jacksonville Center
Thu 09:59:44 AM 31.0664 -81.8958 48° Northeast 285 328 31,000  Level Jacksonville Center
Thu 10:00:44 AM 31.1264 -81.8272 44° Northeast 285 328 31,000  Level Jacksonville Center
Thu 10:01:44 AM 31.1822 -81.7586 46° Northeast 285 328 31,000  Level Jacksonville Center
Thu 10:02:44 AM 31.2422 -81.6922 43° Northeast 285 328 31,000  Level Jacksonville Center
Thu 10:03:44 AM 31.2978 -81.6211 48° Northeast 285 328 31,000  Level Jacksonville Center
Thu 10:04:44 AM 31.3597 -81.5472 46° Northeast 285 328 31,000  Level Jacksonville Center
Thu 10:05:44 AM 31.4133 -81.4831 46° Northeast 274 315 31,000  Level Jacksonville Center
Thu 10:06:44 AM 31.4669 -81.4214 44° Northeast 269 310 31,000  Level Jacksonville Center
Thu 10:07:44 AM 31.5164 -81.3622 46° Northeast 259 298 31,000  Level Jacksonville Center
Thu 10:08:44 AM 31.5617 -81.3078 46° Northeast 251 289 31,000  Level Jacksonville Center
Thu 10:09:44 AM 31.6192 -81.2383 46° Northeast 252 290 31,000  Level Jacksonville Center
Thu 10:10:44 AM 31.6725 -81.1739 46° Northeast 259 298 31,000  Level Jacksonville Center
Thu 10:11:44 AM 31.7219 -81.1144 46° Northeast 269 310 31,000  Level Jacksonville Center
Thu 10:12:44 AM 31.7856 -81.0375 46° Northeast 284 327 31,000  Level Jacksonville Center
Thu 10:13:44 AM 31.8347 -80.9753 47° Northeast 284 327 31,000  Level Jacksonville Center
Thu 10:14:44 AM 31.8983 -80.9006 45° Northeast 279 321 31,000  Level Jacksonville Center
Thu 10:15:44 AM 31.9536 -80.8333 46° Northeast 279 321 31,000  Level Jacksonville Center
Thu 10:16:44 AM 32.0067 -80.7708 45° Northeast 279 321 31,000  Level Jacksonville Center
Thu 10:17:44 AM 32.0681 -80.6958 46° Northeast 279 321 31,000  Level Jacksonville Center
Thu 10:18:44 AM 32.1192 -80.6333 46° Northeast 279 321 31,000  Level Jacksonville Center
Thu 10:19:44 AM 32.1764 -80.5608 47° Northeast 279 321 31,000  Level Jacksonville Center
Thu 10:20:44 AM 32.2336 -80.4931 45° Northeast 279 321 31,000  Level Jacksonville Center
Thu 10:21:44 AM 32.2906 -80.4203 47° Northeast 284 327 31,000  Level Jacksonville Center
Thu 10:22:44 AM 32.3497 -80.3497 45° Northeast 284 327 31,000  Level Jacksonville Center
Thu 10:23:44 AM 32.4067 -80.2794 46° Northeast 284 327 31,000  Level Jacksonville Center
Thu 10:24:44 AM 32.4639 -80.2111 45° Northeast 284 327 31,000  Level Jacksonville Center
Thu 10:25:44 AM 32.5231 -80.1456 43° Northeast 284 327 31,000  Level Jacksonville Center
Thu 10:26:44 AM 32.5861 -80.0794 41° Northeast 290 334 31,000  Level Jacksonville Center
Thu 10:27:44 AM 32.6453 -80.0136 43° Northeast 290 334 31,000  Level Jacksonville Center
Thu 10:28:44 AM 32.7022 -79.9500 43° Northeast 290 334 31,000  Level Jacksonville Center
Thu 10:29:44 AM 32.7694 -79.8761 43° Northeast 295 339 31,000  Level Jacksonville Center
Thu 10:30:44 AM 32.8303 -79.8097 43° Northeast 295 339 31,000  Level Jacksonville Center
Thu 10:31:44 AM 32.8894 -79.7483 41° Northeast 295 339 31,000  Level Jacksonville Center
Thu 10:32:44 AM 32.9503 -79.6794 44° Northeast 290 334 31,000  Level Jacksonville Center
Thu 10:33:44 AM 33.0092 -79.6156 42° Northeast 290 334 31,000  Level Jacksonville Center
Thu 10:34:44 AM 33.0700 -79.5489 43° Northeast 290 334 31,000 -250 Level Jacksonville Center
Thu 10:35:44 AM 33.1308 -79.4819 43° Northeast 290 334 30,500 -950 Descending Jacksonville Center
Thu 10:36:44 AM 33.1936 -79.4125 43° Northeast 295 339 29,100 -1,400 Descending Jacksonville Center
Thu 10:37:44 AM 33.2586 -79.3431 42° Northeast 300 345 27,700 -1,350 Descending Jacksonville Center
Thu 10:38:44 AM 33.3233 -79.2708 43° Northeast 306 352 26,400 -1,350 Descending Jacksonville Center
Thu 10:39:44 AM 33.3858 -79.2011 43° Northeast 306 352 25,000 -1,150 Descending Jacksonville Center
Thu 10:40:44 AM 33.4486 -79.1314 43° Northeast 306 352 24,100 -500 Descending Jacksonville Center
Thu 10:41:44 AM 33.4992 -79.0744 43° Northeast 281 323 24,000 -300 Descending Jacksonville Center
Thu 10:42:44 AM 33.5517 -79.0172 42° Northeast 261 300 23,500 -950 Descending Jacksonville Center
Thu 10:43:44 AM 33.6058 -78.9550 44° Northeast 261 300 22,100 -1,400 Descending Jacksonville Center
Thu 10:44:44 AM 33.6664 -78.8875 43° Northeast 273 314 20,700 -1,350 Descending Jacksonville Center
Thu 10:45:44 AM 33.7269 -78.8222 42° Northeast 278 320 19,400 -1,400 Descending Jacksonville Center
Thu 10:46:44 AM 33.7853 -78.7572 43° Northeast 283 326 17,900 -1,272 Descending Jacksonville Center
Thu 10:48:48 AM 33.8817 -78.6008 53° Northeast 267 307 15,500 -1,253 Descending Washington Center
Thu 10:49:46 AM 33.9253 -78.5250 55° Northeast 272 313 14,100 -1,424 Descending Washington Center
Thu 10:50:46 AM 33.9689 -78.4464 56° Northeast 277 319 12,700 -1,438 Descending Washington Center
Thu 10:51:47 AM 34.0125 -78.3678 56° Northeast 277 319 11,200 -1,033 Descending Washington Center
Thu 10:52:48 AM 34.0536 -78.2939 56° Northeast 277 319 10,600 -1,041 Descending Washington Center
Thu 10:53:48 AM 34.0886 -78.2222 59° Northeast 265 305 9,100 -1,576 Descending Washington Center
Thu 10:54:46 AM 34.1092 -78.1503 71° East 244 281 7,500 -1,678 Descending Washington Center
Thu 10:55:46 AM 34.1394 -78.0886 59° Northeast 220 253 5,800 -1,785 Descending Washington Center
Thu 10:56:47 AM 34.1742 -78.0344 52° Northeast 209 241 3,900 -1,869 Descending Washington Center
Thu 10:57:48 AM 34.2125 -77.9903 44° Northeast 188 216 2,000 -1,869 Descending Washington Center

Login

Don't have an account? Register now (free) for customized features, flight alerts, and more!